• Join FlightAware (Why Join?)
  • Login
  • US Flag 
12:54PM EDT


 

Airport Tracker/Info


-or-


 

Live Flight TrackerFlight Track Log ✈ IFL471 ✈ 26-Jun-2013 ✈ KPTK - KTVF

Flight Track Log - Related Links

Times and Time Zones

All times are in EDT time to prevent confusion due to time zone crossing. See the IFL471 flight status page for this flight to view local times or setup timezone preferences in your user account.

Time Position Orientation Groundspeed Altitude Reporting Facility
EDT Latitude Longitude Course Direction KTS MPH feet Rate Location/Type
07:07PM 42.6622 -83.4464 284° West 153 176 1,600  Level Cleveland Center
07:08PM 42.6769 -83.5261 284° West 237 273 3,200 1,740 Climbing Cleveland Center
07:09PM 42.7439 -83.5178 North 257 296 5,100 2,100 Climbing Cleveland Center
07:10PM 42.8056 -83.4642 33° Northeast 248 285 7,300 2,100 Climbing Cleveland Center
07:11PM 42.8697 -83.4019 35° Northeast 273 314 9,300 1,920 Climbing Cleveland Center
07:12PM 42.9414 -83.3683 19° North 279 321 11,200 1,800 Climbing Cleveland Center
07:13PM 43.0267 -83.3692 360° North 278 320 13,000 1,560 Climbing Cleveland Center
07:14PM 43.1072 -83.4014 344° North 296 341 14,400 1,620 Climbing Cleveland Center
07:15PM 43.1589 -83.5006 306° West 280 322 16,300 1,620 Climbing Cleveland Center
07:16PM 43.2192 -83.5917 312° West 303 349 17,700 1,320 Climbing Cleveland Center
07:17PM 43.2814 -83.6889 311° West 323 372 19,000 1,140 Climbing Cleveland Center
07:18PM 43.3453 -83.7892 311° West 335 386 20,000 960 Climbing Cleveland Center
07:19PM 43.3867 -83.8497 313° West 348 400 20,600 1,020 Climbing Minneapolis Center
07:20PM 43.4522 -83.9536 311° West 357 411 21,700 960 Climbing Minneapolis Center
07:21PM 43.5186 -84.0578 311° West 362 417 22,700 960 Climbing Minneapolis Center
07:22PM 43.5678 -84.1458 308° West 363 418 23,700 1,020 Climbing Minneapolis Center
07:23PM 43.6308 -84.2894 301° West 365 420 24,900 960 Climbing Minneapolis Center
07:24PM 43.6744 -84.3836 303° West 366 421 25,700 840 Climbing Minneapolis Center
07:25PM 43.7817 -84.5197 318° Northwest 378 435 26,700 960 Climbing Minneapolis Center
07:26PM 43.8725 -84.6000 328° Northwest 385 443 27,800 600 Climbing Minneapolis Center
07:27PM 43.9731 -84.6642 335° Northwest 393 452 28,000 60 Climbing Minneapolis Center
07:28PM 44.0808 -84.7156 341° North 403 464 28,000  Level Minneapolis Center
07:29PM 44.2028 -84.8167 329° Northwest 421 484 28,000  Level Minneapolis Center
07:30PM 44.2628 -84.9597 300° West 425 489 28,000 -60 Level Minneapolis Center
07:31PM 44.3222 -85.1072 299° West 433 498 27,900  Descending Minneapolis Center
07:32PM 44.3847 -85.2544 301° West 439 505 28,000 60 Climbing Minneapolis Center
07:33PM 44.4472 -85.3978 301° West 436 502 28,100  Climbing Minneapolis Center
07:34PM 44.5067 -85.5328 302° West 419 482 28,100  Level Minneapolis Center
07:35PM 44.5742 -85.6944 300° West 405 466 28,100  Level Minneapolis Center
07:36PM 44.6386 -85.8631 298° West 412 474 28,100 -60 Level Minneapolis Center
07:37PM 44.6950 -86.0108 298° West 424 488 28,000  Descending Minneapolis Center
07:38PM 44.7525 -86.1556 299° West 426 490 28,100  Climbing Minneapolis Center
07:39PM 44.8114 -86.2994 300° West 426 490 28,100  Level Minneapolis Center
07:40PM 44.8678 -86.4436 299° West 425 489 28,100  Level Minneapolis Center
07:41PM 44.9364 -86.6225 298° West 430 495 28,100 -60 Level Minneapolis Center
07:43PM 44.9897 -86.7564 299° West 431 496 28,000  Descending Minneapolis Center
07:44PM 45.0706 -86.9661 299° West 433 498 28,100  Climbing Minneapolis Center
07:45PM 45.1269 -87.1139 298° West 429 494 28,100  Level Minneapolis Center
07:46PM 45.1842 -87.2600 299° West 427 491 28,100 -60 Level Minneapolis Center
07:47PM 45.2419 -87.4044 300° West 424 488 28,000 -60 Descending Minneapolis Center
07:48PM 45.2961 -87.5508 298° West 421 484 28,000  Level Minneapolis Center
07:49PM 45.3478 -87.6983 297° West 419 482 28,000  Level Minneapolis Center
07:50PM 45.4008 -87.8775 293° West 413 475 28,100  Climbing Minneapolis Center
07:51PM 45.3947 -88.0417 267° West 413 475 28,000 -60 Descending Minneapolis Center
07:52PM 45.3878 -88.2042 267° West 414 476 28,000 -60 Level Minneapolis Center
07:53PM 45.3883 -88.3781 270° West 410 472 27,900  Descending Minneapolis Center
07:54PM 45.3975 -88.5353 275° West 402 463 28,000 60 Climbing Minneapolis Center
07:55PM 45.4303 -88.6819 288° West 392 451 28,100  Climbing Minneapolis Center
07:56PM 45.4761 -88.8192 296° West 385 443 28,000 -60 Descending Minneapolis Center
07:57PM 45.5336 -88.9478 303° West 385 443 28,000  Level Minneapolis Center
07:58PM 45.6128 -89.0717 312° West 386 444 28,000  Level Minneapolis Center
07:59PM 45.6967 -89.1678 321° Northwest 389 448 28,000  Level Minneapolis Center
08:00PM 45.7608 -89.3272 300° West 391 450 28,100  Climbing Minneapolis Center
08:01PM 45.8131 -89.4667 298° West 396 456 28,100 -60 Level Minneapolis Center
08:02PM 45.8650 -89.6056 298° West 397 457 28,000  Descending Minneapolis Center
08:03PM 45.9150 -89.7436 298° West 397 457 28,100  Climbing Minneapolis Center
08:04PM 45.9675 -89.8822 299° West 395 455 28,000  Descending Minneapolis Center
08:05PM 46.0189 -90.0244 298° West 398 458 28,100  Climbing Minneapolis Center
08:07PM 46.0819 -90.1983 298° West 407 468 28,100  Level Minneapolis Center
08:08PM 46.1367 -90.3414 299° West 407 468 28,100 -60 Level Minneapolis Center
08:09PM 46.1931 -90.4872 299° West 412 474 28,000  Descending Minneapolis Center
08:10PM 46.2467 -90.6339 298° West 414 476 28,100  Climbing Minneapolis Center
08:11PM 46.2978 -90.7811 297° West 410 472 28,100 -60 Level Minneapolis Center
08:12PM 46.3542 -90.9250 300° West 410 472 28,000  Descending Minneapolis Center
08:13PM 46.4164 -91.0989 297° West 407 468 28,100  Climbing Minneapolis Center
08:14PM 46.4647 -91.2453 296° West 404 465 28,000  Descending Minneapolis Center
08:15PM 46.5156 -91.3900 297° West 403 464 28,100  Climbing Minneapolis Center
08:16PM 46.5664 -91.5344 297° West 403 464 28,000 -60 Descending Minneapolis Center
08:17PM 46.6203 -91.6922 296° West 399 459 28,000  Level Minneapolis Center
08:18PM 46.6700 -91.8358 297° West 398 458 28,100  Climbing Minneapolis Center
08:19PM 46.7197 -91.9786 297° West 397 457 28,000  Descending Minneapolis Center
08:20PM 46.7672 -92.1222 296° West 395 455 28,100  Climbing Minneapolis Center
08:21PM 46.8169 -92.2642 297° West 395 455 28,000 -60 Descending Minneapolis Center
08:22PM 46.8664 -92.4033 297° West 389 448 28,000  Level Minneapolis Center
08:23PM 46.9233 -92.5722 296° West 387 445 28,100  Climbing Minneapolis Center
08:24PM 46.9703 -92.7117 296° West 384 442 28,000 -60 Descending Minneapolis Center
08:25PM 47.0167 -92.8511 296° West 382 440 28,000  Level Minneapolis Center
08:26PM 47.0622 -92.9900 296° West 379 436 28,100  Climbing Minneapolis Center
08:27PM 47.1000 -93.1011 297° West 379 436 28,100 -60 Level Minneapolis Center
08:28PM 47.1539 -93.2683 295° West 376 433 28,000  Descending Minneapolis Center
08:29PM 47.1997 -93.4092 296° West 377 434 28,100  Climbing Minneapolis Center
08:30PM 47.2553 -93.5786 296° West 380 437 28,000  Descending Minneapolis Center
08:31PM 47.3019 -93.7197 296° West 383 441 28,100  Climbing Minneapolis Center
08:32PM 47.3478 -93.8600 296° West 380 437 28,100 -60 Level Minneapolis Center
08:33PM 47.3919 -94.0000 295° West 377 434 28,000  Descending Minneapolis Center
08:34PM 47.4369 -94.1383 296° West 376 433 28,100  Climbing Minneapolis Center
08:35PM 47.4722 -94.2514 295° West 377 434 28,100  Level Minneapolis Center
08:37PM 47.5269 -94.4186 296° West 377 434 28,100 -1,020 Level Minneapolis Center
08:38PM 47.5881 -94.6211 294° West 385 443 25,900 -1,920 Descending Minneapolis Center
08:39PM 47.6367 -94.7681 296° West 394 453 24,100 -1,860 Descending Minneapolis Center
08:40PM 47.6836 -94.9142 296° West 394 453 22,100 -2,280 Descending Minneapolis Center
08:41PM 47.7269 -95.0625 294° West 393 452 19,400 -2,760 Descending Minneapolis Center
08:42PM 47.7697 -95.2122 293° West 396 456 16,400 -3,660 Descending Minneapolis Center
08:43PM 47.8150 -95.3631 294° West 342 394 11,900 -3,120 Descending Minneapolis Center
08:44PM 47.8494 -95.4792 294° West 314 361 10,000 -1,740 Descending Minneapolis Center
08:45PM 47.8661 -95.5400 292° West 257 296 8,400 -2,040 Descending Minneapolis Center
08:46PM 47.9014 -95.6408 298° West 233 268 5,900 -1,680 Descending Minneapolis Center
08:47PM 47.9364 -95.7453 297° West 233 268 5,000 -480 Descending Minneapolis Center
08:48PM 47.9575 -95.8256 291° West 227 261 5,000  Level Minneapolis Center
08:49PM 47.9031 -95.8067 167° South 238 274 5,000  Level Minneapolis Center
08:50PM 47.9497 -95.7769 23° Northeast 237 273 5,100  Climbing Minneapolis Center
08:51PM 47.9144 -95.8208 220° Southwest 218 251 5,000  Descending Minneapolis Center
08:52PM 47.9331 -95.7508 68° East 216 249 5,100  Climbing Minneapolis Center
08:53PM 47.9525 -95.8264 291° West 208 239 5,100 -120 Level Minneapolis Center
08:54PM 47.9650 -95.9103 283° West 210 242 4,900 -540 Descending Minneapolis Center
08:55PM 47.9756 -96.0033 280° West 215 247 4,000 -660 Descending Minneapolis Center
08:56PM 47.9839 -96.0611 282° West 203 234 3,600 -420 Descending Minneapolis Center